sensor_id;sensor_type;location;lat;lon;timestamp;P1;durP1;ratioP1;P2;durP2;ratioP2
45402;SDS011;47427;51.976;5.326;2022-12-17T00:03:25;69.25;;;36.47;;
45402;SDS011;47427;51.976;5.326;2022-12-17T00:07:06;71.35;;;38.47;;
45402;SDS011;47427;51.976;5.326;2022-12-17T00:10:48;68.78;;;36.92;;
45402;SDS011;47427;51.976;5.326;2022-12-17T00:14:30;62.70;;;34.50;;
45402;SDS011;47427;51.976;5.326;2022-12-17T00:18:11;64.20;;;35.28;;
45402;SDS011;47427;51.976;5.326;2022-12-17T00:21:53;66.05;;;37.95;;
45402;SDS011;47427;51.976;5.326;2022-12-17T00:25:34;65.60;;;37.33;;
45402;SDS011;47427;51.976;5.326;2022-12-17T00:29:16;66.97;;;35.67;;
45402;SDS011;47427;51.976;5.326;2022-12-17T00:32:57;60.95;;;33.60;;
45402;SDS011;47427;51.976;5.326;2022-12-17T00:36:39;65.22;;;35.63;;
45402;SDS011;47427;51.976;5.326;2022-12-17T00:40:20;70.97;;;36.80;;
45402;SDS011;47427;51.976;5.326;2022-12-17T00:44:03;77.15;;;39.65;;
45402;SDS011;47427;51.976;5.326;2022-12-17T00:47:46;71.75;;;38.83;;
45402;SDS011;47427;51.976;5.326;2022-12-17T00:51:28;74.63;;;38.63;;
45402;SDS011;47427;51.976;5.326;2022-12-17T00:55:09;69.25;;;37.47;;
45402;SDS011;47427;51.976;5.326;2022-12-17T00:58:51;70.10;;;38.80;;
45402;SDS011;47427;51.976;5.326;2022-12-17T01:02:32;69.45;;;37.10;;
45402;SDS011;47427;51.976;5.326;2022-12-17T01:06:14;73.80;;;39.58;;
45402;SDS011;47427;51.976;5.326;2022-12-17T01:09:55;69.13;;;37.72;;
45402;SDS011;47427;51.976;5.326;2022-12-17T01:13:37;72.05;;;36.50;;
45402;SDS011;47427;51.976;5.326;2022-12-17T01:17:17;69.10;;;36.78;;
45402;SDS011;47427;51.976;5.326;2022-12-17T01:20:59;71.47;;;37.35;;
45402;SDS011;47427;51.976;5.326;2022-12-17T01:24:40;70.95;;;37.22;;
45402;SDS011;47427;51.976;5.326;2022-12-17T01:28:22;69.22;;;37.40;;
45402;SDS011;47427;51.976;5.326;2022-12-17T01:32:04;69.97;;;37.75;;
45402;SDS011;47427;51.976;5.326;2022-12-17T01:35:46;71.30;;;36.63;;
45402;SDS011;47427;51.976;5.326;2022-12-17T01:39:27;75.85;;;38.97;;
45402;SDS011;47427;51.976;5.326;2022-12-17T01:43:12;77.00;;;39.83;;
45402;SDS011;47427;51.976;5.326;2022-12-17T01:46:54;69.30;;;37.38;;
45402;SDS011;47427;51.976;5.326;2022-12-17T01:50:39;76.65;;;39.67;;
45402;SDS011;47427;51.976;5.326;2022-12-17T01:54:25;74.25;;;36.88;;
45402;SDS011;47427;51.976;5.326;2022-12-17T01:58:06;65.75;;;33.75;;
45402;SDS011;47427;51.976;5.326;2022-12-17T02:01:46;64.70;;;34.65;;
45402;SDS011;47427;51.976;5.326;2022-12-17T02:05:29;67.32;;;35.47;;
45402;SDS011;47427;51.976;5.326;2022-12-17T02:09:41;68.20;;;36.45;;
45402;SDS011;47427;51.976;5.326;2022-12-17T02:18:17;69.70;;;36.97;;
45402;SDS011;47427;51.976;5.326;2022-12-17T02:22:08;71.40;;;35.72;;
45402;SDS011;47427;51.976;5.326;2022-12-17T02:26:18;71.22;;;38.00;;
45402;SDS011;47427;51.976;5.326;2022-12-17T02:30:16;65.05;;;36.38;;
45402;SDS011;47427;51.976;5.326;2022-12-17T02:33:56;72.38;;;37.80;;
45402;SDS011;47427;51.976;5.326;2022-12-17T02:37:47;67.30;;;38.13;;
45402;SDS011;47427;51.976;5.326;2022-12-17T02:41:31;66.45;;;37.97;;
45402;SDS011;47427;51.976;5.326;2022-12-17T02:45:30;64.15;;;36.40;;
45402;SDS011;47427;51.976;5.326;2022-12-17T02:49:12;67.13;;;37.45;;
45402;SDS011;47427;51.976;5.326;2022-12-17T02:52:53;66.47;;;37.13;;
45402;SDS011;47427;51.976;5.326;2022-12-17T02:56:37;67.03;;;36.25;;
45402;SDS011;47427;51.976;5.326;2022-12-17T03:00:18;73.20;;;39.25;;
45402;SDS011;47427;51.976;5.326;2022-12-17T03:03:59;72.13;;;41.03;;
45402;SDS011;47427;51.976;5.326;2022-12-17T03:07:40;72.57;;;39.97;;
45402;SDS011;47427;51.976;5.326;2022-12-17T03:11:20;70.72;;;39.05;;
45402;SDS011;47427;51.976;5.326;2022-12-17T03:15:00;71.10;;;39.30;;
45402;SDS011;47427;51.976;5.326;2022-12-17T03:18:41;73.28;;;39.47;;
45402;SDS011;47427;51.976;5.326;2022-12-17T03:22:41;78.18;;;39.55;;
45402;SDS011;47427;51.976;5.326;2022-12-17T03:26:22;72.72;;;39.10;;
45402;SDS011;47427;51.976;5.326;2022-12-17T03:30:02;73.00;;;39.83;;
45402;SDS011;47427;51.976;5.326;2022-12-17T03:33:43;69.95;;;40.35;;
45402;SDS011;47427;51.976;5.326;2022-12-17T03:37:26;69.68;;;38.30;;
45402;SDS011;47427;51.976;5.326;2022-12-17T03:41:06;73.90;;;41.08;;
45402;SDS011;47427;51.976;5.326;2022-12-17T03:44:46;71.30;;;37.80;;
45402;SDS011;47427;51.976;5.326;2022-12-17T03:48:27;74.18;;;39.58;;
45402;SDS011;47427;51.976;5.326;2022-12-17T03:52:07;77.45;;;42.83;;
45402;SDS011;47427;51.976;5.326;2022-12-17T03:55:47;79.18;;;43.45;;
45402;SDS011;47427;51.976;5.326;2022-12-17T03:59:28;73.00;;;40.83;;
45402;SDS011;47427;51.976;5.326;2022-12-17T04:03:08;83.72;;;44.60;;
45402;SDS011;47427;51.976;5.326;2022-12-17T04:06:48;78.80;;;41.95;;
45402;SDS011;47427;51.976;5.326;2022-12-17T04:10:29;80.40;;;41.10;;
45402;SDS011;47427;51.976;5.326;2022-12-17T04:14:09;79.95;;;42.38;;
45402;SDS011;47427;51.976;5.326;2022-12-17T04:17:49;76.15;;;42.60;;
45402;SDS011;47427;51.976;5.326;2022-12-17T04:21:30;83.72;;;42.00;;
45402;SDS011;47427;51.976;5.326;2022-12-17T04:25:10;80.22;;;44.05;;
45402;SDS011;47427;51.976;5.326;2022-12-17T04:28:51;82.93;;;40.80;;
45402;SDS011;47427;51.976;5.326;2022-12-17T04:32:31;84.43;;;44.25;;
45402;SDS011;47427;51.976;5.326;2022-12-17T04:36:11;77.57;;;41.35;;
45402;SDS011;47427;51.976;5.326;2022-12-17T04:39:53;85.28;;;43.88;;
45402;SDS011;47427;51.976;5.326;2022-12-17T04:43:34;77.40;;;41.97;;
45402;SDS011;47427;51.976;5.326;2022-12-17T04:47:26;78.30;;;42.95;;
45402;SDS011;47427;51.976;5.326;2022-12-17T04:51:08;75.20;;;42.08;;
45402;SDS011;47427;51.976;5.326;2022-12-17T04:54:49;78.53;;;42.35;;
45402;SDS011;47427;51.976;5.326;2022-12-17T04:58:31;80.90;;;41.33;;
45402;SDS011;47427;51.976;5.326;2022-12-17T05:02:12;73.35;;;41.97;;
45402;SDS011;47427;51.976;5.326;2022-12-17T05:05:53;83.72;;;46.38;;
45402;SDS011;47427;51.976;5.326;2022-12-17T05:09:35;79.50;;;42.63;;
45402;SDS011;47427;51.976;5.326;2022-12-17T05:13:17;77.97;;;42.53;;
45402;SDS011;47427;51.976;5.326;2022-12-17T05:16:58;76.07;;;41.85;;
45402;SDS011;47427;51.976;5.326;2022-12-17T05:20:40;74.47;;;41.88;;
45402;SDS011;47427;51.976;5.326;2022-12-17T05:24:21;72.75;;;38.92;;
45402;SDS011;47427;51.976;5.326;2022-12-17T05:28:03;74.25;;;39.80;;
45402;SDS011;47427;51.976;5.326;2022-12-17T05:31:44;68.07;;;40.22;;
45402;SDS011;47427;51.976;5.326;2022-12-17T05:35:26;73.70;;;42.30;;
45402;SDS011;47427;51.976;5.326;2022-12-17T05:39:07;83.05;;;42.83;;
45402;SDS011;47427;51.976;5.326;2022-12-17T05:42:59;75.22;;;42.88;;
45402;SDS011;47427;51.976;5.326;2022-12-17T05:46:43;84.03;;;40.55;;
45402;SDS011;47427;51.976;5.326;2022-12-17T05:50:28;76.40;;;41.92;;
45402;SDS011;47427;51.976;5.326;2022-12-17T05:54:09;79.20;;;38.25;;
45402;SDS011;47427;51.976;5.326;2022-12-17T05:57:51;80.05;;;40.63;;
45402;SDS011;47427;51.976;5.326;2022-12-17T06:01:40;72.18;;;36.08;;
45402;SDS011;47427;51.976;5.326;2022-12-17T06:05:22;72.20;;;38.70;;
45402;SDS011;47427;51.976;5.326;2022-12-17T06:09:03;75.55;;;35.25;;
45402;SDS011;47427;51.976;5.326;2022-12-17T06:12:53;73.05;;;40.33;;
45402;SDS011;47427;51.976;5.326;2022-12-17T06:16:36;73.78;;;37.63;;
45402;SDS011;47427;51.976;5.326;2022-12-17T06:20:17;72.90;;;40.53;;
45402;SDS011;47427;51.976;5.326;2022-12-17T06:23:59;80.20;;;39.35;;
45402;SDS011;47427;51.976;5.326;2022-12-17T06:27:40;75.63;;;40.85;;
45402;SDS011;47427;51.976;5.326;2022-12-17T06:31:22;78.22;;;41.72;;
45402;SDS011;47427;51.976;5.326;2022-12-17T06:35:04;73.88;;;38.65;;
45402;SDS011;47427;51.976;5.326;2022-12-17T06:38:44;75.57;;;39.63;;
45402;SDS011;47427;51.976;5.326;2022-12-17T06:42:26;77.82;;;38.42;;
45402;SDS011;47427;51.976;5.326;2022-12-17T06:46:07;77.68;;;39.80;;
45402;SDS011;47427;51.976;5.326;2022-12-17T06:49:48;79.97;;;39.25;;
45402;SDS011;47427;51.976;5.326;2022-12-17T06:53:28;74.88;;;40.72;;
45402;SDS011;47427;51.976;5.326;2022-12-17T06:57:09;82.38;;;44.33;;
45402;SDS011;47427;51.976;5.326;2022-12-17T07:00:51;80.95;;;46.35;;
45402;SDS011;47427;51.976;5.326;2022-12-17T07:04:32;82.22;;;42.67;;
45402;SDS011;47427;51.976;5.326;2022-12-17T07:08:14;83.15;;;42.15;;
45402;SDS011;47427;51.976;5.326;2022-12-17T07:11:55;94.88;;;47.58;;
45402;SDS011;47427;51.976;5.326;2022-12-17T07:15:37;83.32;;;44.10;;
45402;SDS011;47427;51.976;5.326;2022-12-17T07:19:18;93.20;;;46.72;;
45402;SDS011;47427;51.976;5.326;2022-12-17T07:23:03;85.50;;;44.20;;
45402;SDS011;47427;51.976;5.326;2022-12-17T07:26:44;95.55;;;49.25;;
45402;SDS011;47427;51.976;5.326;2022-12-17T07:30:26;89.28;;;45.17;;
45402;SDS011;47427;51.976;5.326;2022-12-17T07:34:07;92.10;;;47.47;;
45402;SDS011;47427;51.976;5.326;2022-12-17T07:37:48;86.70;;;43.65;;
45402;SDS011;47427;51.976;5.326;2022-12-17T07:41:36;79.18;;;40.40;;
45402;SDS011;47427;51.976;5.326;2022-12-17T07:45:18;90.18;;;45.33;;
45402;SDS011;47427;51.976;5.326;2022-12-17T07:48:59;88.72;;;46.60;;
45402;SDS011;47427;51.976;5.326;2022-12-17T07:52:41;86.97;;;46.47;;
45402;SDS011;47427;51.976;5.326;2022-12-17T07:56:22;88.05;;;45.63;;
45402;SDS011;47427;51.976;5.326;2022-12-17T08:00:05;89.05;;;44.95;;
45402;SDS011;47427;51.976;5.326;2022-12-17T08:04:06;93.25;;;43.63;;
45402;SDS011;47427;51.976;5.326;2022-12-17T08:07:46;100.45;;;46.88;;
45402;SDS011;47427;51.976;5.326;2022-12-17T08:11:27;99.85;;;46.65;;
45402;SDS011;47427;51.976;5.326;2022-12-17T08:15:07;102.28;;;49.10;;
45402;SDS011;47427;51.976;5.326;2022-12-17T08:18:48;94.20;;;47.45;;
45402;SDS011;47427;51.976;5.326;2022-12-17T08:22:29;88.78;;;46.38;;
45402;SDS011;47427;51.976;5.326;2022-12-17T08:26:09;107.38;;;49.78;;
45402;SDS011;47427;51.976;5.326;2022-12-17T08:29:50;98.65;;;47.22;;
45402;SDS011;47427;51.976;5.326;2022-12-17T08:33:30;101.95;;;48.90;;
45402;SDS011;47427;51.976;5.326;2022-12-17T08:37:10;93.68;;;45.50;;
45402;SDS011;47427;51.976;5.326;2022-12-17T08:40:51;87.63;;;41.67;;
45402;SDS011;47427;51.976;5.326;2022-12-17T08:44:31;106.50;;;47.95;;
45402;SDS011;47427;51.976;5.326;2022-12-17T08:48:13;105.22;;;51.67;;
45402;SDS011;47427;51.976;5.326;2022-12-17T08:51:53;87.43;;;42.15;;
45402;SDS011;47427;51.976;5.326;2022-12-17T08:55:33;97.07;;;46.95;;
45402;SDS011;47427;51.976;5.326;2022-12-17T08:59:15;91.45;;;44.13;;
45402;SDS011;47427;51.976;5.326;2022-12-17T09:02:56;85.47;;;43.22;;
45402;SDS011;47427;51.976;5.326;2022-12-17T09:06:40;88.63;;;44.40;;
45402;SDS011;47427;51.976;5.326;2022-12-17T09:10:22;88.25;;;43.80;;
45402;SDS011;47427;51.976;5.326;2022-12-17T09:14:02;98.47;;;45.85;;
45402;SDS011;47427;51.976;5.326;2022-12-17T09:17:43;91.25;;;43.97;;
45402;SDS011;47427;51.976;5.326;2022-12-17T09:21:23;88.70;;;43.40;;
45402;SDS011;47427;51.976;5.326;2022-12-17T09:25:06;97.50;;;45.05;;
45402;SDS011;47427;51.976;5.326;2022-12-17T09:28:46;98.88;;;47.05;;
45402;SDS011;47427;51.976;5.326;2022-12-17T09:32:29;89.68;;;41.97;;
45402;SDS011;47427;51.976;5.326;2022-12-17T09:36:09;88.88;;;41.78;;
45402;SDS011;47427;51.976;5.326;2022-12-17T09:39:49;94.68;;;45.75;;
45402;SDS011;47427;51.976;5.326;2022-12-17T09:43:51;86.05;;;41.70;;
45402;SDS011;47427;51.976;5.326;2022-12-17T09:47:51;84.80;;;39.58;;
45402;SDS011;47427;51.976;5.326;2022-12-17T09:51:50;95.75;;;40.58;;
45402;SDS011;47427;51.976;5.326;2022-12-17T09:55:51;79.82;;;41.05;;
45402;SDS011;47427;51.976;5.326;2022-12-17T09:59:32;81.97;;;39.88;;
45402;SDS011;47427;51.976;5.326;2022-12-17T10:03:18;96.85;;;44.03;;
45402;SDS011;47427;51.976;5.326;2022-12-17T10:07:01;92.72;;;43.35;;
45402;SDS011;47427;51.976;5.326;2022-12-17T10:10:43;90.00;;;41.33;;
45402;SDS011;47427;51.976;5.326;2022-12-17T10:14:24;94.55;;;41.38;;
45402;SDS011;47427;51.976;5.326;2022-12-17T10:18:08;99.35;;;40.83;;
45402;SDS011;47427;51.976;5.326;2022-12-17T10:21:51;85.97;;;40.45;;
45402;SDS011;47427;51.976;5.326;2022-12-17T10:25:31;93.28;;;44.60;;
45402;SDS011;47427;51.976;5.326;2022-12-17T10:29:14;96.07;;;42.70;;
45402;SDS011;47427;51.976;5.326;2022-12-17T10:32:57;95.45;;;43.80;;
45402;SDS011;47427;51.976;5.326;2022-12-17T10:36:37;97.35;;;40.90;;
45402;SDS011;47427;51.976;5.326;2022-12-17T10:40:33;103.75;;;45.13;;
45402;SDS011;47427;51.976;5.326;2022-12-17T10:44:24;100.20;;;44.63;;
45402;SDS011;47427;51.976;5.326;2022-12-17T10:48:16;89.32;;;41.40;;
45402;SDS011;47427;51.976;5.326;2022-12-17T10:52:00;87.68;;;36.78;;
45402;SDS011;47427;51.976;5.326;2022-12-17T10:56:01;94.07;;;42.17;;
45402;SDS011;47427;51.976;5.326;2022-12-17T10:59:43;98.75;;;43.38;;
45402;SDS011;47427;51.976;5.326;2022-12-17T11:07:09;87.85;;;42.05;;
45402;SDS011;47427;51.976;5.326;2022-12-17T11:11:06;83.60;;;39.50;;
45402;SDS011;47427;51.976;5.326;2022-12-17T11:14:51;87.93;;;39.90;;
45402;SDS011;47427;51.976;5.326;2022-12-17T11:22:20;85.97;;;41.50;;
45402;SDS011;47427;51.976;5.326;2022-12-17T11:26:16;73.97;;;38.42;;
45402;SDS011;47427;51.976;5.326;2022-12-17T11:29:58;81.07;;;40.05;;
45402;SDS011;47427;51.976;5.326;2022-12-17T11:33:43;84.60;;;42.17;;
45402;SDS011;47427;51.976;5.326;2022-12-17T11:38:06;89.65;;;41.63;;
45402;SDS011;47427;51.976;5.326;2022-12-17T11:42:15;81.95;;;40.40;;
45402;SDS011;47427;51.976;5.326;2022-12-17T11:46:21;86.30;;;40.97;;
45402;SDS011;47427;51.976;5.326;2022-12-17T11:50:19;87.63;;;43.42;;
45402;SDS011;47427;51.976;5.326;2022-12-17T12:06:50;102.90;;;44.72;;
45402;SDS011;47427;51.976;5.326;2022-12-17T12:10:57;102.75;;;45.70;;
45402;SDS011;47427;51.976;5.326;2022-12-17T12:23:17;90.10;;;39.95;;
45402;SDS011;47427;51.976;5.326;2022-12-17T12:31:34;94.07;;;44.30;;
45402;SDS011;47427;51.976;5.326;2022-12-17T12:35:29;89.07;;;42.17;;
45402;SDS011;47427;51.976;5.326;2022-12-17T12:39:11;97.68;;;42.30;;
45402;SDS011;47427;51.976;5.326;2022-12-17T12:42:58;97.88;;;44.60;;
45402;SDS011;47427;51.976;5.326;2022-12-17T12:47:00;100.30;;;45.40;;
45402;SDS011;47427;51.976;5.326;2022-12-17T12:51:02;100.22;;;45.35;;
45402;SDS011;47427;51.976;5.326;2022-12-17T12:55:09;95.97;;;43.30;;
45402;SDS011;47427;51.976;5.326;2022-12-17T12:58:50;108.22;;;48.80;;
45402;SDS011;47427;51.976;5.326;2022-12-17T13:02:30;126.30;;;60.40;;
45402;SDS011;47427;51.976;5.326;2022-12-17T13:06:12;108.63;;;55.22;;
45402;SDS011;47427;51.976;5.326;2022-12-17T13:09:58;97.07;;;46.03;;
45402;SDS011;47427;51.976;5.326;2022-12-17T13:13:31;102.40;;;49.95;;
45402;SDS011;47427;51.976;5.326;2022-12-17T13:17:01;101.93;;;46.13;;
45402;SDS011;47427;51.976;5.326;2022-12-17T13:20:35;90.03;;;45.03;;
45402;SDS011;47427;51.976;5.326;2022-12-17T13:24:08;98.97;;;46.13;;
45402;SDS011;47427;51.976;5.326;2022-12-17T13:27:42;103.03;;;46.58;;
45402;SDS011;47427;51.976;5.326;2022-12-17T13:31:11;92.82;;;44.22;;
45402;SDS011;47427;51.976;5.326;2022-12-17T13:38:26;102.97;;;47.55;;
45402;SDS011;47427;51.976;5.326;2022-12-17T13:42:15;94.05;;;45.20;;
45402;SDS011;47427;51.976;5.326;2022-12-17T13:45:44;101.23;;;45.33;;
45402;SDS011;47427;51.976;5.326;2022-12-17T13:49:15;94.25;;;42.55;;
45402;SDS011;47427;51.976;5.326;2022-12-17T13:52:45;89.65;;;41.42;;
45402;SDS011;47427;51.976;5.326;2022-12-17T13:56:08;96.65;;;44.92;;
45402;SDS011;47427;51.976;5.326;2022-12-17T13:59:31;100.63;;;48.38;;
45402;SDS011;47427;51.976;5.326;2022-12-17T14:02:53;93.47;;;42.55;;
45402;SDS011;47427;51.976;5.326;2022-12-17T14:06:15;94.45;;;45.85;;
45402;SDS011;47427;51.976;5.326;2022-12-17T14:09:38;99.95;;;45.47;;
45402;SDS011;47427;51.976;5.326;2022-12-17T14:13:04;92.35;;;41.35;;
45402;SDS011;47427;51.976;5.326;2022-12-17T14:16:30;100.03;;;45.33;;
45402;SDS011;47427;51.976;5.326;2022-12-17T14:19:57;100.00;;;47.95;;
45402;SDS011;47427;51.976;5.326;2022-12-17T14:23:43;94.07;;;42.78;;
45402;SDS011;47427;51.976;5.326;2022-12-17T14:31:17;96.80;;;43.08;;
45402;SDS011;47427;51.976;5.326;2022-12-17T14:34:40;93.57;;;42.65;;
45402;SDS011;47427;51.976;5.326;2022-12-17T14:38:02;96.90;;;46.63;;
45402;SDS011;47427;51.976;5.326;2022-12-17T14:41:25;95.72;;;45.08;;
45402;SDS011;47427;51.976;5.326;2022-12-17T14:48:34;96.20;;;44.78;;
45402;SDS011;47427;51.976;5.326;2022-12-17T14:52:18;94.68;;;45.47;;
45402;SDS011;47427;51.976;5.326;2022-12-17T14:55:58;95.40;;;42.40;;
45402;SDS011;47427;51.976;5.326;2022-12-17T14:59:23;90.90;;;44.22;;
45402;SDS011;47427;51.976;5.326;2022-12-17T15:02:50;97.93;;;43.08;;
45402;SDS011;47427;51.976;5.326;2022-12-17T15:06:15;91.77;;;44.73;;
45402;SDS011;47427;51.976;5.326;2022-12-17T15:09:41;99.95;;;47.85;;
45402;SDS011;47427;51.976;5.326;2022-12-17T15:13:03;93.43;;;43.90;;
45402;SDS011;47427;51.976;5.326;2022-12-17T15:16:25;99.13;;;44.45;;
45402;SDS011;47427;51.976;5.326;2022-12-17T15:19:47;99.00;;;45.90;;
45402;SDS011;47427;51.976;5.326;2022-12-17T15:23:16;94.10;;;47.03;;
45402;SDS011;47427;51.976;5.326;2022-12-17T15:26:41;101.45;;;46.10;;
45402;SDS011;47427;51.976;5.326;2022-12-17T15:30:04;98.72;;;48.30;;
45402;SDS011;47427;51.976;5.326;2022-12-17T15:33:28;102.55;;;49.55;;
45402;SDS011;47427;51.976;5.326;2022-12-17T15:36:51;105.22;;;48.67;;
45402;SDS011;47427;51.976;5.326;2022-12-17T15:40:13;95.50;;;45.72;;
45402;SDS011;47427;51.976;5.326;2022-12-17T15:43:35;112.63;;;50.45;;
45402;SDS011;47427;51.976;5.326;2022-12-17T15:46:58;101.70;;;47.97;;
45402;SDS011;47427;51.976;5.326;2022-12-17T15:50:19;107.03;;;50.70;;
45402;SDS011;47427;51.976;5.326;2022-12-17T15:53:42;101.47;;;48.72;;
45402;SDS011;47427;51.976;5.326;2022-12-17T15:57:05;97.15;;;45.05;;
45402;SDS011;47427;51.976;5.326;2022-12-17T16:00:27;112.20;;;46.28;;
45402;SDS011;47427;51.976;5.326;2022-12-17T16:03:50;105.72;;;47.10;;
45402;SDS011;47427;51.976;5.326;2022-12-17T16:07:11;111.28;;;49.28;;
45402;SDS011;47427;51.976;5.326;2022-12-17T16:10:34;103.88;;;50.80;;
45402;SDS011;47427;51.976;5.326;2022-12-17T16:13:58;98.55;;;46.25;;
45402;SDS011;47427;51.976;5.326;2022-12-17T16:17:21;103.50;;;47.13;;
45402;SDS011;47427;51.976;5.326;2022-12-17T16:20:44;96.13;;;44.00;;
45402;SDS011;47427;51.976;5.326;2022-12-17T16:24:07;103.88;;;47.30;;
45402;SDS011;47427;51.976;5.326;2022-12-17T16:27:31;109.70;;;48.85;;
45402;SDS011;47427;51.976;5.326;2022-12-17T16:31:01;106.65;;;49.28;;
45402;SDS011;47427;51.976;5.326;2022-12-17T16:34:33;105.22;;;47.58;;
45402;SDS011;47427;51.976;5.326;2022-12-17T16:37:57;107.95;;;46.05;;
45402;SDS011;47427;51.976;5.326;2022-12-17T16:41:20;111.40;;;50.35;;
45402;SDS011;47427;51.976;5.326;2022-12-17T16:44:43;109.53;;;50.30;;
45402;SDS011;47427;51.976;5.326;2022-12-17T16:48:05;108.43;;;49.80;;
45402;SDS011;47427;51.976;5.326;2022-12-17T16:51:28;108.78;;;47.25;;
45402;SDS011;47427;51.976;5.326;2022-12-17T16:54:51;99.35;;;45.60;;
45402;SDS011;47427;51.976;5.326;2022-12-17T16:58:14;103.95;;;44.83;;
45402;SDS011;47427;51.976;5.326;2022-12-17T17:01:39;110.18;;;46.75;;
45402;SDS011;47427;51.976;5.326;2022-12-17T17:05:04;95.88;;;42.42;;
45402;SDS011;47427;51.976;5.326;2022-12-17T17:08:26;111.25;;;48.22;;
45402;SDS011;47427;51.976;5.326;2022-12-17T17:11:48;107.05;;;48.85;;
45402;SDS011;47427;51.976;5.326;2022-12-17T17:15:10;109.93;;;46.10;;
45402;SDS011;47427;51.976;5.326;2022-12-17T17:18:32;101.03;;;42.90;;
45402;SDS011;47427;51.976;5.326;2022-12-17T17:21:55;102.28;;;42.63;;
45402;SDS011;47427;51.976;5.326;2022-12-17T17:25:17;94.65;;;43.25;;
45402;SDS011;47427;51.976;5.326;2022-12-17T17:28:40;99.30;;;45.65;;
45402;SDS011;47427;51.976;5.326;2022-12-17T17:32:05;101.67;;;45.77;;
45402;SDS011;47427;51.976;5.326;2022-12-17T17:35:28;96.38;;;45.55;;
45402;SDS011;47427;51.976;5.326;2022-12-17T17:38:52;103.03;;;45.47;;
45402;SDS011;47427;51.976;5.326;2022-12-17T17:45:39;102.80;;;45.85;;
45402;SDS011;47427;51.976;5.326;2022-12-17T17:49:22;123.03;;;51.35;;
45402;SDS011;47427;51.976;5.326;2022-12-17T17:52:45;125.32;;;51.13;;
45402;SDS011;47427;51.976;5.326;2022-12-17T17:56:09;138.52;;;56.33;;
45402;SDS011;47427;51.976;5.326;2022-12-17T17:59:38;121.20;;;48.70;;
45402;SDS011;47427;51.976;5.326;2022-12-17T18:03:01;130.07;;;52.72;;
45402;SDS011;47427;51.976;5.326;2022-12-17T18:06:26;112.50;;;50.45;;
45402;SDS011;47427;51.976;5.326;2022-12-17T18:09:49;120.32;;;48.72;;
45402;SDS011;47427;51.976;5.326;2022-12-17T18:13:11;110.95;;;47.47;;
45402;SDS011;47427;51.976;5.326;2022-12-17T18:16:53;129.90;;;50.90;;
45402;SDS011;47427;51.976;5.326;2022-12-17T18:20:16;112.55;;;47.22;;
45402;SDS011;47427;51.976;5.326;2022-12-17T18:23:40;116.93;;;48.67;;
45402;SDS011;47427;51.976;5.326;2022-12-17T18:27:03;115.30;;;46.00;;
45402;SDS011;47427;51.976;5.326;2022-12-17T18:30:26;116.00;;;45.17;;
45402;SDS011;47427;51.976;5.326;2022-12-17T18:33:54;111.57;;;44.58;;
45402;SDS011;47427;51.976;5.326;2022-12-17T18:37:19;133.73;;;52.00;;
45402;SDS011;47427;51.976;5.326;2022-12-17T18:40:42;117.28;;;47.53;;
45402;SDS011;47427;51.976;5.326;2022-12-17T18:44:05;111.45;;;45.70;;
45402;SDS011;47427;51.976;5.326;2022-12-17T18:47:27;113.32;;;45.47;;
45402;SDS011;47427;51.976;5.326;2022-12-17T18:50:48;108.43;;;40.90;;
45402;SDS011;47427;51.976;5.326;2022-12-17T18:54:12;120.55;;;48.90;;
45402;SDS011;47427;51.976;5.326;2022-12-17T18:57:36;108.88;;;44.95;;
45402;SDS011;47427;51.976;5.326;2022-12-17T19:00:58;110.88;;;47.72;;
45402;SDS011;47427;51.976;5.326;2022-12-17T19:04:39;131.38;;;51.00;;
45402;SDS011;47427;51.976;5.326;2022-12-17T19:08:02;125.55;;;49.15;;
45402;SDS011;47427;51.976;5.326;2022-12-17T19:11:26;119.22;;;49.55;;
45402;SDS011;47427;51.976;5.326;2022-12-17T19:14:49;140.98;;;53.05;;
45402;SDS011;47427;51.976;5.326;2022-12-17T19:18:12;143.65;;;53.53;;
45402;SDS011;47427;51.976;5.326;2022-12-17T19:21:35;137.60;;;47.83;;
45402;SDS011;47427;51.976;5.326;2022-12-17T19:24:57;122.40;;;47.28;;
45402;SDS011;47427;51.976;5.326;2022-12-17T19:28:20;138.30;;;50.95;;
45402;SDS011;47427;51.976;5.326;2022-12-17T19:31:43;117.88;;;44.28;;
45402;SDS011;47427;51.976;5.326;2022-12-17T19:35:06;128.63;;;48.58;;
45402;SDS011;47427;51.976;5.326;2022-12-17T19:38:28;123.75;;;48.67;;
45402;SDS011;47427;51.976;5.326;2022-12-17T19:41:50;150.57;;;57.17;;
45402;SDS011;47427;51.976;5.326;2022-12-17T19:45:11;152.98;;;60.13;;
45402;SDS011;47427;51.976;5.326;2022-12-17T19:48:33;132.38;;;52.70;;
45402;SDS011;47427;51.976;5.326;2022-12-17T19:51:56;160.95;;;59.33;;
45402;SDS011;47427;51.976;5.326;2022-12-17T19:55:19;145.27;;;55.05;;
45402;SDS011;47427;51.976;5.326;2022-12-17T19:58:41;164.45;;;56.83;;
45402;SDS011;47427;51.976;5.326;2022-12-17T20:02:05;157.98;;;47.42;;
45402;SDS011;47427;51.976;5.326;2022-12-17T20:05:26;132.45;;;51.08;;
45402;SDS011;47427;51.976;5.326;2022-12-17T20:08:48;140.65;;;48.13;;
45402;SDS011;47427;51.976;5.326;2022-12-17T20:12:11;152.75;;;56.50;;
45402;SDS011;47427;51.976;5.326;2022-12-17T20:15:33;116.22;;;47.28;;
45402;SDS011;47427;51.976;5.326;2022-12-17T20:18:54;118.22;;;46.72;;
45402;SDS011;47427;51.976;5.326;2022-12-17T20:22:18;125.97;;;48.00;;
45402;SDS011;47427;51.976;5.326;2022-12-17T20:25:39;128.32;;;48.53;;
45402;SDS011;47427;51.976;5.326;2022-12-17T20:29:01;148.98;;;54.17;;
45402;SDS011;47427;51.976;5.326;2022-12-17T20:32:24;128.77;;;51.47;;
45402;SDS011;47427;51.976;5.326;2022-12-17T20:35:46;140.60;;;51.97;;
45402;SDS011;47427;51.976;5.326;2022-12-17T20:39:08;173.60;;;61.72;;
45402;SDS011;47427;51.976;5.326;2022-12-17T20:42:32;143.27;;;48.97;;
45402;SDS011;47427;51.976;5.326;2022-12-17T20:45:54;125.10;;;49.42;;
45402;SDS011;47427;51.976;5.326;2022-12-17T20:49:17;130.98;;;50.92;;
45402;SDS011;47427;51.976;5.326;2022-12-17T20:52:40;122.40;;;49.05;;
45402;SDS011;47427;51.976;5.326;2022-12-17T20:56:08;138.50;;;50.67;;
45402;SDS011;47427;51.976;5.326;2022-12-17T20:59:33;120.32;;;51.20;;
45402;SDS011;47427;51.976;5.326;2022-12-17T21:02:56;127.78;;;50.53;;
45402;SDS011;47427;51.976;5.326;2022-12-17T21:06:19;130.48;;;51.90;;
45402;SDS011;47427;51.976;5.326;2022-12-17T21:10:18;125.07;;;49.55;;
45402;SDS011;47427;51.976;5.326;2022-12-17T21:13:40;123.28;;;47.63;;
45402;SDS011;47427;51.976;5.326;2022-12-17T21:17:02;135.10;;;52.95;;
45402;SDS011;47427;51.976;5.326;2022-12-17T21:20:24;131.80;;;50.13;;
45402;SDS011;47427;51.976;5.326;2022-12-17T21:23:46;130.43;;;56.90;;
45402;SDS011;47427;51.976;5.326;2022-12-17T21:27:09;151.35;;;56.20;;
45402;SDS011;47427;51.976;5.326;2022-12-17T21:30:34;113.65;;;48.35;;
45402;SDS011;47427;51.976;5.326;2022-12-17T21:37:22;105.93;;;44.22;;
45402;SDS011;47427;51.976;5.326;2022-12-17T21:40:43;117.97;;;48.78;;
45402;SDS011;47427;51.976;5.326;2022-12-17T21:44:06;111.28;;;49.35;;
45402;SDS011;47427;51.976;5.326;2022-12-17T21:47:30;120.65;;;50.40;;
45402;SDS011;47427;51.976;5.326;2022-12-17T21:50:52;126.30;;;49.72;;
45402;SDS011;47427;51.976;5.326;2022-12-17T21:54:14;117.68;;;45.92;;